Time;durP1;ratioP1;P1;durP2;ratioP2;P2;SDS_P1;SDS_P2;PMS_P1;PMS_P2;Temp;Humidity;BMP_temperature;BMP_pressure;BME280_temperature;BME280_humidity;BME280_pressure;Samples;Min_cycle;Max_cycle;Signal;HPM_P1;HPM_P2
2022/05/11 00:01:34;;;;;;;0.50;0.50;;;;;;;7.18;41.42;98696.59;4822804;29;20192;-87
2022/05/11 00:04:03;;;;;;;0.50;0.50;;;;;;;7.20;41.12;98684.59;4822220;29;20059;-88
2022/05/11 00:06:30;;;;;;;0.45;0.45;;;;;;;7.13;41.00;98679.31;4822553;29;20101;-89
2022/05/11 00:08:57;;;;;;;0.50;0.50;;;;;;;7.12;40.86;98676.88;4807150;29;20177;-89
2022/05/11 00:11:26;;;;;;;0.50;0.50;;;;;;;7.18;41.09;98678.63;4822593;29;20164;-90
2022/05/11 00:13:55;;;;;;;0.50;0.50;;;;;;;7.18;41.21;98689.38;4822693;29;20115;-87
2022/05/11 00:16:23;;;;;;;0.50;0.50;;;;;;;7.06;40.93;98677.78;4822524;29;20141;-89
2022/05/11 00:18:51;;;;;;;0.50;0.50;;;;;;;7.02;41.21;98671.25;4860516;29;20076;-89
2022/05/11 00:21:18;;;;;;;0.50;0.50;;;;;;;7.17;40.63;98682.38;4845979;29;20065;-88
2022/05/11 00:23:46;;;;;;;0.50;0.50;;;;;;;7.08;40.69;98662.28;4844951;29;20069;-89
2022/05/11 00:26:15;;;;;;;0.50;0.50;;;;;;;7.02;40.84;98677.44;4844637;29;20052;-88
2022/05/11 00:28:43;;;;;;;0.50;0.50;;;;;;;6.87;41.08;98648.34;4861654;29;20056;-88
2022/05/11 00:31:10;;;;;;;0.50;0.50;;;;;;;6.94;40.97;98659.81;4862636;29;20506;-88
2022/05/11 00:33:38;;;;;;;0.50;0.50;;;;;;;6.99;40.93;98675.22;4866100;29;20057;-88
2022/05/11 00:36:11;;;;;;;0.50;0.50;;;;;;;6.86;40.93;98661.97;4862168;29;20053;-88
2022/05/11 00:38:40;;;;;;;0.50;0.50;;;;;;;6.88;41.17;98670.63;4872936;29;20053;-85
2022/05/11 00:41:08;;;;;;;0.50;0.50;;;;;;;6.89;41.27;98673.09;4871767;29;20144;-86
2022/05/11 00:43:38;;;;;;;0.50;0.50;;;;;;;6.78;41.47;98660.44;4869959;29;20099;-85
2022/05/11 00:46:17;;;;;;;0.50;0.50;;;;;;;6.78;41.87;98671.16;4881477;29;20097;-87
2022/05/11 00:51:35;;;;;;;0.50;0.50;;;;;;;6.66;41.50;98654.22;4866250;29;20052;-88
2022/05/11 00:54:03;;;;;;;0.50;0.50;;;;;;;6.63;41.60;98651.97;4863573;29;20061;-89
2022/05/11 00:56:32;;;;;;;0.52;0.52;;;;;;;6.59;41.68;98650.81;4863028;29;20045;-88
2022/05/11 00:59:06;;;;;;;0.50;0.50;;;;;;;6.59;41.66;98667.72;4881559;29;20146;-88
2022/05/11 01:01:34;;;;;;;0.50;0.50;;;;;;;6.54;42.00;98656.06;4882073;29;20482;-88
2022/05/11 01:04:08;;;;;;;0.60;0.60;;;;;;;6.58;41.69;98663.38;4866642;29;20056;-90
2022/05/11 01:06:37;;;;;;;0.50;0.50;;;;;;;6.65;41.56;98677.53;4869115;29;20057;-88
2022/05/11 01:09:06;;;;;;;0.50;0.50;;;;;;;6.52;41.85;98661.63;4865978;29;20048;-89
2022/05/11 01:11:56;;;;;;;0.50;0.50;;;;;;;6.57;41.93;98666.31;4882861;29;20049;-88
2022/05/11 01:14:27;;;;;;;0.50;0.50;;;;;;;6.68;41.61;98671.75;4881135;29;20056;-89
2022/05/11 01:16:56;;;;;;;0.50;0.50;;;;;;;6.74;41.84;98670.00;4864747;29;20057;-90
2022/05/11 01:19:32;;;;;;;0.50;0.50;;;;;;;6.69;41.77;98667.19;4880190;29;20573;-88
2022/05/11 01:22:26;;;;;;;0.50;0.50;;;;;;;6.51;41.60;98642.03;4864919;29;20052;-88
2022/05/11 01:24:54;;;;;;;0.50;0.50;;;;;;;6.49;42.21;98670.13;4879503;29;20173;-87
2022/05/11 01:27:35;;;;;;;0.50;0.50;;;;;;;6.47;42.49;98674.88;4879054;29;20075;-89
2022/05/11 01:30:06;;;;;;;0.50;0.50;;;;;;;6.38;42.48;98666.34;4878748;29;20057;-89
2022/05/11 01:32:35;;;;;;;0.50;0.50;;;;;;;6.39;42.50;98661.81;4879625;29;20065;-86
2022/05/11 01:35:28;;;;;;;0.50;0.50;;;;;;;6.47;42.37;98670.34;4878261;29;20113;-89
2022/05/11 01:38:35;;;;;;;0.45;0.45;;;;;;;6.46;42.53;98668.72;4861201;29;20563;-86
2022/05/11 01:41:02;;;;;;;0.60;0.60;;;;;;;6.34;42.92;98646.41;4864670;29;20053;-86
2022/05/11 01:43:33;;;;;;;0.50;0.50;;;;;;;6.33;42.42;98646.59;4863425;29;20088;-88
2022/05/11 01:46:01;;;;;;;0.50;0.50;;;;;;;6.42;42.29;98661.34;4870304;29;20056;-87
2022/05/11 01:48:29;;;;;;;0.60;0.60;;;;;;;6.33;42.60;98650.13;4900674;29;20055;-89
2022/05/11 01:50:56;;;;;;;0.60;0.60;;;;;;;6.37;42.42;98653.16;4864651;29;20064;-87
2022/05/11 01:53:24;;;;;;;0.50;0.50;;;;;;;6.44;42.35;98660.06;4890916;29;20139;-88
2022/05/11 01:55:51;;;;;;;0.50;0.50;;;;;;;6.49;41.98;98660.22;4863221;29;20068;-89
2022/05/11 01:58:19;;;;;;;0.60;0.60;;;;;;;6.47;42.52;98664.97;4878828;29;20060;-89
2022/05/11 02:00:47;;;;;;;0.57;0.57;;;;;;;6.46;42.58;98667.91;4879668;29;20048;-90
2022/05/11 02:03:18;;;;;;;0.50;0.50;;;;;;;6.33;42.38;98641.25;4842815;29;20053;-88
2022/05/11 02:08:37;;;;;;;0.50;0.50;;;;;;;6.54;41.92;98650.69;4865039;29;20637;-88
2022/05/11 02:11:06;;;;;;;0.50;0.50;;;;;;;6.54;42.22;98648.00;4860719;29;20053;-87
2022/05/11 02:13:33;;;;;;;0.50;0.50;;;;;;;6.53;42.56;98655.22;4826870;29;20065;-89
2022/05/11 02:16:01;;;;;;;0.45;0.45;;;;;;;6.49;42.50;98654.84;4841989;29;20060;-87
2022/05/11 02:18:28;;;;;;;0.50;0.50;;;;;;;6.51;42.13;98652.78;4857234;29;20573;-89
2022/05/11 02:20:56;;;;;;;0.50;0.50;;;;;;;6.61;42.19;98652.22;4857320;29;20053;-88
2022/05/11 02:23:23;;;;;;;0.50;0.50;;;;;;;6.63;41.86;98660.03;4856866;29;20063;-88
2022/05/11 02:25:52;;;;;;;0.50;0.50;;;;;;;6.67;41.98;98656.66;4842000;29;20060;-89
2022/05/11 02:28:22;;;;;;;0.60;0.60;;;;;;;6.69;42.25;98651.09;4857191;29;20049;-88
2022/05/11 02:30:51;;;;;;;0.50;0.50;;;;;;;6.72;41.41;98650.63;4857278;29;20065;-89
2022/05/11 02:33:19;;;;;;;0.60;0.60;;;;;;;6.76;41.32;98634.88;4858813;29;20098;-88
2022/05/11 02:35:47;;;;;;;0.50;0.50;;;;;;;6.85;41.56;98655.78;4880429;29;20125;-88
2022/05/11 02:38:18;;;;;;;0.60;0.60;;;;;;;6.85;41.74;98655.78;4880648;29;20053;-87
2022/05/11 02:40:47;;;;;;;0.60;0.60;;;;;;;6.73;42.09;98647.72;4865547;29;20512;-86
2022/05/11 02:43:15;;;;;;;0.50;0.50;;;;;;;6.83;41.35;98644.47;4879168;29;20053;-88
2022/05/11 02:45:43;;;;;;;0.50;0.50;;;;;;;6.92;42.03;98645.78;4861366;29;20112;-88
2022/05/11 02:48:14;;;;;;;0.50;0.50;;;;;;;6.94;41.51;98645.56;4878487;29;20076;-88
2022/05/11 02:50:51;;;;;;;0.50;0.50;;;;;;;7.02;41.14;98649.78;4878033;29;20139;-87
2022/05/11 02:53:19;;;;;;;0.60;0.60;;;;;;;6.99;41.13;98642.19;4861653;29;20224;-88
2022/05/11 02:55:51;;;;;;;0.50;0.50;;;;;;;7.06;40.89;98649.06;4878901;29;20064;-90
2022/05/11 02:58:22;;;;;;;0.50;0.50;;;;;;;7.08;41.43;98657.72;4878571;29;20470;-89
2022/05/11 03:00:51;;;;;;;0.60;0.60;;;;;;;7.11;40.68;98653.75;4870352;29;20028;-87
2022/05/11 03:03:19;;;;;;;0.60;0.60;;;;;;;7.16;40.80;98645.84;4886417;29;20052;-88
2022/05/11 03:05:47;;;;;;;0.60;0.60;;;;;;;7.08;40.60;98640.81;4890081;29;20065;-88
2022/05/11 03:08:14;;;;;;;0.50;0.50;;;;;;;7.14;40.44;98653.28;4864882;29;20105;-86
2022/05/11 03:10:42;;;;;;;0.50;0.50;;;;;;;7.08;41.31;98630.88;4881355;29;20462;-89
2022/05/11 03:13:09;;;;;;;0.60;0.60;;;;;;;7.24;41.09;98642.84;4881012;29;20068;-89
2022/05/11 03:15:36;;;;;;;0.50;0.50;;;;;;;7.31;40.84;98653.44;4880416;29;20061;-88
2022/05/11 03:18:04;;;;;;;0.60;0.60;;;;;;;7.34;40.08;98653.81;4880001;29;20053;-89
2022/05/11 03:20:31;;;;;;;0.60;0.60;;;;;;;7.27;40.38;98628.94;4880928;29;20045;-89
2022/05/11 03:22:58;;;;;;;0.50;0.50;;;;;;;7.45;40.91;98637.94;4881199;29;20135;-89
2022/05/11 03:25:28;;;;;;;0.60;0.60;;;;;;;7.50;40.09;98643.44;4880653;29;20113;-87
2022/05/11 03:27:55;;;;;;;0.60;0.60;;;;;;;7.51;39.89;98642.38;4882183;29;20509;-90
2022/05/11 03:30:22;;;;;;;0.60;0.60;;;;;;;7.58;39.96;98645.75;4865372;29;20056;-88
2022/05/11 03:35:36;;;;;;;0.50;0.50;;;;;;;7.55;39.47;98635.50;4867171;29;20516;-89
2022/05/11 03:38:03;;;;;;;0.60;0.60;;;;;;;7.66;40.11;98639.22;4881188;29;20048;-89
2022/05/11 03:40:31;;;;;;;0.60;0.60;;;;;;;7.74;39.93;98645.03;4865873;29;20064;-89
2022/05/11 03:43:01;;;;;;;0.50;0.50;;;;;;;7.76;39.89;98644.81;4881073;29;20044;-89
2022/05/11 03:45:34;;;;;;;0.55;0.55;;;;;;;7.77;39.83;98649.97;4864309;29;20095;-88
2022/05/11 03:48:02;;;;;;;0.50;0.50;;;;;;;7.68;39.75;98627.19;4886764;29;20156;-87
2022/05/11 03:50:29;;;;;;;0.60;0.60;;;;;;;7.79;39.83;98641.66;4871391;29;20056;-88
2022/05/11 03:52:57;;;;;;;0.60;0.60;;;;;;;7.87;39.82;98648.53;4872061;29;20049;-88
2022/05/11 03:55:26;;;;;;;0.60;0.60;;;;;;;7.73;39.84;98623.81;4868695;29;20594;-87
2022/05/11 03:57:53;;;;;;;0.60;0.60;;;;;;;7.88;39.58;98648.31;4865297;29;20063;-90
2022/05/11 04:00:22;;;;;;;0.60;0.60;;;;;;;7.76;39.06;98634.88;4879889;29;20056;-89
2022/05/11 04:02:50;;;;;;;0.57;0.57;;;;;;;7.84;39.41;98652.50;4880983;29;20077;-90
2022/05/11 04:05:19;;;;;;;0.60;0.60;;;;;;;7.79;39.40;98649.72;4880389;29;20113;-89
2022/05/11 04:07:46;;;;;;;0.52;0.52;;;;;;;7.81;39.25;98631.50;4882663;29;20053;-88
2022/05/11 04:10:15;;;;;;;0.50;0.50;;;;;;;7.88;39.36;98652.88;4870141;29;20048;-90
2022/05/11 04:12:42;;;;;;;0.50;0.50;;;;;;;7.84;39.48;98643.63;4880638;29;20056;-88
2022/05/11 04:15:11;;;;;;;0.50;0.50;;;;;;;7.79;39.31;98633.59;4863835;29;20528;-90
2022/05/11 04:17:39;;;;;;;0.50;0.50;;;;;;;7.75;39.35;98635.94;4863542;29;20057;-88
2022/05/11 04:20:07;;;;;;;0.60;0.60;;;;;;;7.87;39.37;98648.53;4880016;29;20088;-89
2022/05/11 04:22:34;;;;;;;0.60;0.60;;;;;;;7.92;39.60;98659.41;4885227;29;20060;-89
2022/05/11 04:25:01;;;;;;;0.50;0.50;;;;;;;7.95;39.19;98616.75;4850542;29;20067;-90
2022/05/11 04:27:29;;;;;;;0.60;0.60;;;;;;;7.98;39.06;98636.97;4850688;29;20402;-88
2022/05/11 04:29:56;;;;;;;0.60;0.60;;;;;;;8.10;39.18;98645.00;4868403;29;20514;-88
2022/05/11 04:32:24;;;;;;;0.50;0.50;;;;;;;8.23;39.45;98650.94;4866936;29;20091;-89
2022/05/11 04:34:51;;;;;;;0.50;0.50;;;;;;;8.24;39.12;98641.00;4884083;29;20497;-92
2022/05/11 04:37:18;;;;;;;0.55;0.55;;;;;;;8.37;38.48;98645.28;4866171;29;20061;-89
2022/05/11 04:39:45;;;;;;;0.50;0.50;;;;;;;8.40;38.76;98642.13;4882365;29;20053;-92
2022/05/11 04:42:13;;;;;;;0.50;0.50;;;;;;;8.36;38.06;98627.53;4883603;29;20175;-89
2022/05/11 04:44:40;;;;;;;0.60;0.60;;;;;;;8.49;38.51;98638.03;4881698;29;20580;-88
2022/05/11 04:47:09;;;;;;;0.60;0.60;;;;;;;8.45;37.58;98613.47;4864052;29;20053;-88
2022/05/11 04:49:36;;;;;;;0.60;0.60;;;;;;;8.46;37.74;98619.69;4865043;29;20056;-89
2022/05/11 04:52:09;;;;;;;0.60;0.60;;;;;;;8.67;37.72;98623.56;4863524;29;20509;-88
2022/05/11 04:54:44;;;;;;;0.60;0.60;;;;;;;8.73;37.45;98627.16;4849315;29;20503;-89
2022/05/11 04:57:12;;;;;;;0.50;0.50;;;;;;;8.84;37.27;98618.22;4880159;29;20048;-90
2022/05/11 04:59:40;;;;;;;0.60;0.60;;;;;;;8.96;36.77;98616.25;4864218;29;20104;-89
2022/05/11 05:02:14;;;;;;;0.60;0.60;;;;;;;8.87;36.96;98596.19;4864953;29;20053;-90
2022/05/11 05:04:41;;;;;;;0.60;0.60;;;;;;;9.03;37.02;98610.72;4868523;29;20163;-88
2022/05/11 05:07:08;;;;;;;0.60;0.60;;;;;;;9.24;36.67;98607.31;4883332;29;20113;-88
2022/05/11 05:09:35;;;;;;;0.55;0.55;;;;;;;9.29;36.21;98614.63;4866385;29;20060;-87
2022/05/11 05:12:04;;;;;;;0.60;0.60;;;;;;;9.40;35.98;98615.63;4881864;29;20089;-90
2022/05/11 05:14:35;;;;;;;0.60;0.60;;;;;;;9.53;35.98;98612.59;4864329;29;20100;-87
2022/05/11 05:17:05;;;;;;;0.60;0.60;;;;;;;9.68;35.54;98612.00;4864151;29;20045;-89
2022/05/11 05:19:32;;;;;;;0.50;0.50;;;;;;;9.72;35.30;98613.09;4881163;29;20509;-90
2022/05/11 05:22:02;;;;;;;0.60;0.60;;;;;;;9.83;34.58;98606.00;4863813;29;20048;-90
2022/05/11 05:24:30;;;;;;;0.50;0.50;;;;;;;9.98;35.02;98612.41;4836132;29;20060;-89
2022/05/11 05:26:59;;;;;;;0.60;0.60;;;;;;;10.18;35.17;98611.84;4835541;29;20072;-92
2022/05/11 05:32:15;;;;;;;0.50;0.50;;;;;;;10.59;33.39;98598.03;4864178;29;20057;-91
2022/05/11 05:34:45;;;;;;;0.60;0.60;;;;;;;10.72;33.16;98604.91;4882737;29;20057;-91
2022/05/11 05:37:16;;;;;;;0.55;0.55;;;;;;;10.59;32.71;98595.31;4849883;29;20052;-93
2022/05/11 05:39:44;;;;;;;0.50;0.50;;;;;;;10.53;32.70;98580.13;4880884;29;20053;-90
2022/05/11 05:42:19;;;;;;;0.60;0.60;;;;;;;10.78;33.13;98582.25;4849519;29;20049;-91
2022/05/11 05:44:46;;;;;;;0.60;0.60;;;;;;;10.99;32.36;98573.28;4864298;29;20052;-91
2022/05/11 05:47:15;;;;;;;0.60;0.60;;;;;;;11.10;32.08;98590.38;4878825;29;20048;-92
2022/05/11 05:49:43;;;;;;;0.60;0.60;;;;;;;11.20;32.72;98570.75;4878654;29;20097;-91
2022/05/11 05:52:16;;;;;;;0.60;0.60;;;;;;;11.63;31.59;98585.88;4863348;29;20049;-91
2022/05/11 05:54:45;;;;;;;0.60;0.60;;;;;;;11.50;31.24;98565.53;4864510;29;20059;-91
2022/05/11 05:57:14;;;;;;;0.60;0.60;;;;;;;11.75;32.71;98571.34;4883397;29;20041;-92
2022/05/11 05:59:43;;;;;;;0.60;0.60;;;;;;;12.06;31.84;98583.16;4849011;29;20140;-90
2022/05/11 06:02:16;;;;;;;0.60;0.60;;;;;;;12.19;30.59;98584.56;4831306;29;20062;-90
2022/05/11 06:04:50;;;;;;;0.60;0.60;;;;;;;12.13;31.17;98595.34;4843656;29;20582;-89
2022/05/11 06:07:18;;;;;;;;;;;;;;;12.08;31.18;98591.81;4859661;29;20121;-91
2022/05/11 06:09:46;;;;;;;0.60;0.60;;;;;;;12.04;31.37;98572.59;4846275;29;19928;-91
2022/05/11 06:12:15;;;;;;;0.50;0.50;;;;;;;12.14;30.58;98593.47;4791765;29;20050;-92
2022/05/11 06:14:43;;;;;;;0.60;0.60;;;;;;;11.96;30.11;98586.63;4809517;29;20594;-91
2022/05/11 06:17:23;;;;;;;0.55;0.55;;;;;;;11.97;30.92;98584.72;4808287;29;20165;-92
2022/05/11 06:19:52;;;;;;;0.50;0.50;;;;;;;11.97;29.81;98565.78;4822383;29;20058;-90
2022/05/11 06:22:21;;;;;;;0.60;0.60;;;;;;;11.73;31.04;98560.00;4776914;29;20058;-90
2022/05/11 06:24:48;;;;;;;0.60;0.60;;;;;;;12.11;29.94;98573.16;4806883;29;20233;-88
2022/05/11 06:27:18;;;;;;;0.60;0.60;;;;;;;12.18;29.96;98574.78;4822558;29;20050;-90
2022/05/11 06:29:56;;;;;;;0.60;0.60;;;;;;;12.55;30.16;98570.03;4823018;29;20046;-91
2022/05/11 06:32:24;;;;;;;0.60;0.60;;;;;;;12.83;29.57;98578.72;4824054;29;20054;-90
2022/05/11 06:34:56;;;;;;;0.60;0.60;;;;;;;12.93;29.40;98567.09;4842369;29;20065;-90
2022/05/11 06:37:25;;;;;;;0.60;0.60;;;;;;;12.78;28.85;98557.88;4845473;29;20474;-90
2022/05/11 06:39:52;;;;;;;0.50;0.50;;;;;;;12.69;29.47;98564.91;4846452;29;20071;-90
2022/05/11 06:42:20;;;;;;;0.50;0.50;;;;;;;12.52;29.18;98554.31;4834092;29;20069;-90
2022/05/11 06:44:49;;;;;;;0.60;0.60;;;;;;;12.69;29.24;98558.69;4839190;29;20575;-90
2022/05/11 06:47:18;;;;;;;0.50;0.50;;;;;;;12.88;29.09;98548.13;4868319;29;20075;-92
2022/05/11 06:49:45;;;;;;;0.47;0.47;;;;;;;12.73;28.22;98562.47;4874778;29;20064;-91
2022/05/11 06:52:12;;;;;;;0.50;0.50;;;;;;;12.84;28.93;98547.03;4860681;29;20059;-91
2022/05/11 07:00:31;;;;;;;0.50;0.50;;;;;;;13.11;28.51;98533.22;4888660;29;20351;-93
2022/05/11 07:02:58;;;;;;;0.50;0.50;;;;;;;13.10;28.34;98532.44;4872322;29;20466;-90
2022/05/11 07:05:35;;;;;;;0.50;0.50;;;;;;;12.91;28.44;98529.47;4899874;29;20055;-90
2022/05/11 07:08:03;;;;;;;0.50;0.50;;;;;;;12.73;27.81;98536.22;4891489;29;20039;-91
2022/05/11 07:10:31;;;;;;;0.50;0.50;;;;;;;12.73;28.26;98530.78;4880932;29;20064;-90
2022/05/11 07:12:58;;;;;;;0.50;0.50;;;;;;;12.78;28.23;98532.69;4888185;29;20113;-92
2022/05/11 07:15:26;;;;;;;0.50;0.50;;;;;;;12.88;27.56;98532.69;4870926;29;20057;-90
2022/05/11 07:17:56;;;;;;;0.50;0.50;;;;;;;13.01;27.59;98536.75;4885520;29;20049;-90
2022/05/11 07:20:39;;;;;;;0.50;0.50;;;;;;;13.04;26.92;98536.22;4868679;29;20164;-90
2022/05/11 07:23:35;;;;;;;0.40;0.40;;;;;;;12.98;26.82;98524.56;4808652;29;20502;-90
2022/05/11 07:26:03;;;;;;;0.50;0.50;;;;;;;13.09;27.03;98532.69;4845954;29;20046;-91
2022/05/11 07:28:30;;;;;;;0.50;0.50;;;;;;;13.14;26.89;98535.38;4845195;29;20243;-90
2022/05/11 07:30:57;;;;;;;0.50;0.50;;;;;;;13.16;26.16;98520.47;4845143;29;20054;-90
2022/05/11 07:33:25;;;;;;;0.50;0.50;;;;;;;13.30;26.61;98530.81;4830339;29;20553;-90
2022/05/11 07:35:52;;;;;;;0.50;0.50;;;;;;;13.54;26.22;98518.28;4846061;29;20049;-91
2022/05/11 07:38:20;;;;;;;0.50;0.50;;;;;;;13.75;24.88;98535.31;4831194;29;20070;-90
2022/05/11 07:40:47;;;;;;;0.50;0.50;;;;;;;13.82;24.96;98535.81;4815947;29;20200;-91
2022/05/11 07:43:14;;;;;;;0.50;0.50;;;;;;;14.01;24.67;98527.88;4815134;29;20115;-91
2022/05/11 07:45:42;;;;;;;0.60;0.60;;;;;;;14.18;25.15;98503.09;4827503;29;20050;-91
2022/05/11 07:48:10;;;;;;;0.50;0.50;;;;;;;14.55;23.82;98528.13;4843009;29;20076;-90
2022/05/11 07:50:37;;;;;;;0.60;0.60;;;;;;;14.61;23.69;98510.69;4835969;29;20049;-91
2022/05/11 07:53:05;;;;;;;0.60;0.60;;;;;;;14.98;24.31;98533.78;4847099;29;20049;-91
2022/05/11 07:55:33;;;;;;;0.60;0.60;;;;;;;14.99;22.90;98529.97;4876636;29;20052;-90
2022/05/11 08:00:46;;;;;;;0.60;0.60;;;;;;;15.44;23.75;98515.13;4880948;29;20482;-91
2022/05/11 08:03:13;;;;;;;0.60;0.60;;;;;;;15.40;22.32;98508.66;4864554;29;20313;-90
2022/05/11 08:05:40;;;;;;;0.57;0.57;;;;;;;15.17;22.64;98496.66;4880074;29;20417;-90
2022/05/11 08:08:08;;;;;;;0.60;0.60;;;;;;;15.21;22.86;98515.91;4864388;29;20224;-90
2022/05/11 08:10:40;;;;;;;0.70;0.70;;;;;;;15.49;23.55;98503.38;4864436;29;20045;-89
2022/05/11 08:13:08;;;;;;;0.60;0.60;;;;;;;15.92;22.53;98498.81;4865298;29;20053;-92
2022/05/11 08:15:38;;;;;;;0.60;0.60;;;;;;;16.01;21.81;98504.44;4880949;29;20128;-91
2022/05/11 08:18:09;;;;;;;0.60;0.60;;;;;;;15.92;21.93;98496.09;4864939;29;20434;-90
2022/05/11 08:20:42;;;;;;;0.60;0.60;;;;;;;16.26;22.10;98495.13;4866251;29;20149;-90
2022/05/11 08:23:10;;;;;;;0.60;0.60;;;;;;;16.78;21.83;98490.53;4866491;29;20091;-92
2022/05/11 08:25:39;;;;;;;0.70;0.70;;;;;;;17.02;21.33;98476.78;4841929;29;20050;-91
2022/05/11 08:28:12;;;;;;;0.70;0.70;;;;;;;17.37;21.41;98487.31;4825751;29;20053;-89
2022/05/11 08:33:27;;;;;;;0.60;0.60;;;;;;;17.68;21.06;98485.63;4841301;29;20050;-91
2022/05/11 08:36:17;;;;;;;0.50;0.50;;;;;;;17.70;21.59;98483.41;4840569;29;20118;-91
2022/05/11 08:38:47;;;;;;;0.50;0.50;;;;;;;17.74;21.73;98475.41;4810893;29;20514;-91
2022/05/11 08:41:41;;;;;;;0.50;0.50;;;;;;;17.07;21.78;98467.72;4841599;29;20506;-91
2022/05/11 08:44:11;;;;;;;0.50;0.50;;;;;;;16.70;22.43;98485.72;4841304;29;20487;-91
2022/05/11 08:47:19;;;;;;;0.50;0.50;;;;;;;16.29;22.85;98480.91;4811508;29;20053;-90
2022/05/11 08:50:10;;;;;;;0.50;0.50;;;;;;;16.27;23.37;98488.56;4822492;29;20058;-91
2022/05/11 08:53:00;;;;;;;0.50;0.50;;;;;;;16.31;23.84;98476.00;4840241;29;20109;-91
2022/05/11 08:55:43;;;;;;;0.50;0.50;;;;;;;16.51;23.56;98479.47;4811446;29;20065;-92
2022/05/11 08:58:15;;;;;;;0.50;0.50;;;;;;;16.83;23.86;98468.63;4847476;29;20153;-91
2022/05/11 09:00:44;;;;;;;0.50;0.50;;;;;;;17.17;23.04;98474.91;4866677;29;20056;-92
2022/05/11 09:03:20;;;;;;;0.50;0.50;;;;;;;16.97;23.25;98478.78;4863097;29;20081;-92
2022/05/11 09:05:47;;;;;;;0.50;0.50;;;;;;;16.65;23.09;98458.56;4833221;29;20080;-91
2022/05/11 09:08:14;;;;;;;0.50;0.50;;;;;;;16.59;23.18;98467.94;4863491;29;20517;-90
2022/05/11 09:10:41;;;;;;;0.50;0.50;;;;;;;16.71;23.28;98464.72;4880086;29;20076;-92
2022/05/11 09:13:11;;;;;;;0.40;0.40;;;;;;;16.94;22.75;98476.63;4879987;29;20116;-91
2022/05/11 09:16:05;;;;;;;0.40;0.40;;;;;;;16.90;22.64;98466.34;4863918;29;20053;-92
2022/05/11 09:18:39;;;;;;;0.50;0.50;;;;;;;16.86;22.33;98456.31;4819649;29;20052;-90
2022/05/11 09:21:20;;;;;;;0.50;0.50;;;;;;;16.50;22.82;98473.22;4880702;29;20080;-92
2022/05/11 09:24:20;;;;;;;0.50;0.50;;;;;;;16.28;22.93;98457.53;4879331;29;20131;-92
2022/05/11 09:27:04;;;;;;;0.50;0.50;;;;;;;16.49;23.03;98473.56;4863447;29;20282;-92
2022/05/11 09:29:37;;;;;;;0.50;0.50;;;;;;;16.50;23.27;98470.50;4864509;29;20056;-92
2022/05/11 09:32:42;;;;;;;0.50;0.50;;;;;;;16.66;23.22;98479.25;4871976;29;20060;-91
2022/05/11 09:35:22;;;;;;;0.50;0.50;;;;;;;16.89;23.20;98483.81;4863195;29;20060;-90
2022/05/11 09:37:59;;;;;;;0.47;0.47;;;;;;;16.69;23.00;98473.22;4880940;29;20061;-89
2022/05/11 09:40:27;;;;;;;0.50;0.50;;;;;;;16.92;23.10;98487.06;4870212;29;20453;-92
2022/05/11 09:43:03;;;;;;;0.45;0.45;;;;;;;16.94;23.87;98479.34;4880508;29;20048;-90
2022/05/11 09:45:48;;;;;;;0.40;0.40;;;;;;;16.76;23.46;98462.75;4848135;29;20053;-91
2022/05/11 09:48:27;;;;;;;;;;;;;;;16.72;23.68;98482.72;4862949;29;20109;-91
2022/05/11 09:50:57;;;;;;;0.50;0.50;;;;;;;16.45;23.66;98473.31;4880139;29;20358;-92
2022/05/11 09:53:33;;;;;;;0.40;0.40;;;;;;;16.58;23.67;98474.47;4879316;29;20056;-90
2022/05/11 09:56:36;;;;;;;0.40;0.40;;;;;;;16.15;24.01;98482.75;4864934;29;20060;-90
2022/05/11 09:59:36;;;;;;;0.43;0.43;;;;;;;16.20;24.72;98450.81;4828177;29;20513;-92
2022/05/11 10:02:15;;;;;;;0.40;0.40;;;;;;;16.75;23.93;98487.56;4786370;30;20055;-92
2022/05/11 10:05:17;;;;;;;0.50;0.50;;;;;;;16.95;24.10;98487.25;4789677;29;20097;-91
2022/05/11 10:07:54;;;;;;;0.50;0.50;;;;;;;17.14;24.06;98481.72;4785699;30;20147;-93
2022/05/11 10:10:22;;;;;;;0.40;0.40;;;;;;;17.29;23.77;98497.84;4755259;30;20154;-92
2022/05/11 10:12:50;;;;;;;0.50;0.50;;;;;;;16.72;23.97;98477.28;4772039;30;20063;-92
2022/05/11 10:24:12;;;;;;;0.50;0.50;;;;;;;16.44;23.89;98493.50;4788314;30;20520;-90
2022/05/11 10:26:54;;;;;;;0.50;0.50;;;;;;;16.48;25.27;98494.50;4773915;30;20089;-90
2022/05/11 10:29:33;;;;;;;0.50;0.50;;;;;;;16.39;24.70;98479.97;4785345;30;20493;-91
2022/05/11 10:32:11;;;;;;;0.50;0.50;;;;;;;16.78;24.16;98485.06;4771626;30;20069;-92
2022/05/11 10:34:57;;;;;;;0.40;0.40;;;;;;;17.05;23.76;98499.91;4783247;29;20076;-89
2022/05/11 10:37:38;;;;;;;0.50;0.50;;;;;;;16.94;23.45;98491.09;4813547;29;20568;-93
2022/05/11 10:40:10;;;;;;;0.50;0.50;;;;;;;16.92;24.41;98487.84;4850635;29;20203;-93
2022/05/11 10:42:47;;;;;;;0.50;0.50;;;;;;;17.11;23.62;98490.50;4849137;29;20053;-91
2022/05/11 10:45:21;;;;;;;0.50;0.50;;;;;;;17.32;23.55;98469.16;4862562;29;20081;-92
2022/05/11 10:48:14;;;;;;;0.50;0.50;;;;;;;17.62;23.47;98484.09;4878831;29;20513;-91
2022/05/11 10:51:10;;;;;;;0.40;0.40;;;;;;;17.84;22.99;98474.41;4865419;29;20412;-89
2022/05/11 10:53:43;;;;;;;0.47;0.47;;;;;;;17.68;22.70;98461.06;4881867;29;20059;-91
2022/05/11 10:56:16;;;;;;;0.50;0.50;;;;;;;17.41;23.41;98467.31;4847448;29;20417;-92
2022/05/11 10:59:17;;;;;;;0.50;0.50;;;;;;;17.81;23.86;98469.59;4878800;29;20144;-93
2022/05/11 11:01:47;;;;;;;0.50;0.50;;;;;;;17.92;23.59;98460.84;4882197;29;20052;-90
2022/05/11 11:04:52;;;;;;;0.40;0.40;;;;;;;18.36;23.69;98469.47;4867943;29;20054;-91
2022/05/11 11:07:34;;;;;;;0.40;0.40;;;;;;;18.78;22.78;98470.13;4849754;29;20061;-92
2022/05/11 11:10:33;;;;;;;0.47;0.47;;;;;;;18.90;23.37;98473.09;4865053;29;20053;-93
2022/05/11 11:13:24;;;;;;;0.40;0.40;;;;;;;18.87;22.67;98457.31;4853682;29;20140;-91
2022/05/11 11:15:57;;;;;;;0.40;0.40;;;;;;;18.91;23.01;98455.56;4870066;29;20070;-93
2022/05/11 11:18:35;;;;;;;0.40;0.40;;;;;;;18.85;22.69;98437.69;4852044;29;20049;-92
2022/05/11 11:21:03;;;;;;;0.50;0.50;;;;;;;18.94;22.67;98438.56;4866422;29;20591;-91
2022/05/11 11:23:34;;;;;;;0.50;0.50;;;;;;;18.88;22.43;98425.31;4838526;29;20100;-92
2022/05/11 11:26:07;;;;;;;0.50;0.50;;;;;;;19.04;22.77;98443.75;4867714;29;20151;-92
2022/05/11 11:28:40;;;;;;;0.50;0.50;;;;;;;19.65;21.82;98448.66;4867751;29;20064;-92
2022/05/11 11:31:14;;;;;;;0.50;0.50;;;;;;;20.07;21.54;98438.13;4884480;29;20093;-91
2022/05/11 11:34:00;;;;;;;0.40;0.40;;;;;;;20.46;21.94;98439.94;4865880;29;20109;-92
2022/05/11 11:36:34;;;;;;;0.50;0.50;;;;;;;20.68;21.03;98433.47;4880728;29;20067;-89
2022/05/11 11:39:04;;;;;;;0.52;0.52;;;;;;;20.79;20.54;98428.47;4834865;29;20053;-91
2022/05/11 11:41:33;;;;;;;0.60;0.60;;;;;;;21.21;20.31;98425.91;4865994;29;20124;-92
2022/05/11 11:44:08;;;;;;;0.70;0.70;;;;;;;21.87;19.47;98425.44;4835384;29;20053;-92
2022/05/11 11:46:41;;;;;;;0.70;0.70;;;;;;;23.05;19.04;98406.97;4864021;29;20612;-90
2022/05/11 11:49:18;;;;;;;0.68;0.68;;;;;;;24.87;18.08;98422.75;4880959;29;20048;-90
2022/05/11 11:51:56;;;;;;;0.70;0.70;;;;;;;25.97;16.88;98409.28;4880812;29;20076;-91
2022/05/11 11:54:44;;;;;;;0.60;0.60;;;;;;;25.46;16.30;98419.16;4881930;29;20072;-91
2022/05/11 11:57:16;;;;;;;0.50;0.50;;;;;;;24.96;17.31;98415.09;4869597;29;20068;-90
2022/05/11 11:59:49;;;;;;;0.50;0.50;;;;;;;25.00;16.95;98416.00;4881493;29;20085;-91
2022/05/11 12:02:29;;;;;;;0.40;0.40;;;;;;;25.34;16.21;98410.94;4880465;29;20120;-91
2022/05/11 12:05:47;;;;;;;0.50;0.50;;;;;;;24.73;16.67;98405.81;4880270;29;20555;-91
2022/05/11 12:16:56;;;;;;;0.50;0.50;;;;;;;24.74;17.20;98399.94;4822551;29;20107;-91
2022/05/11 12:19:26;;;;;;;0.70;0.70;;;;;;;25.81;16.26;98399.03;4807133;29;20058;-91
2022/05/11 12:21:59;;;;;;;0.70;0.70;;;;;;;26.95;15.51;98388.75;4822462;29;20047;-90
2022/05/11 12:24:28;;;;;;;0.70;0.70;;;;;;;27.35;14.67;98373.63;4821933;29;20549;-92
2022/05/11 12:26:59;;;;;;;0.60;0.60;;;;;;;27.22;14.97;98362.72;4822802;29;20058;-90
2022/05/11 12:32:27;;;;;;;0.60;0.60;;;;;;;27.91;14.08;98370.13;4807027;29;20058;-92
2022/05/11 12:34:57;;;;;;;0.60;0.60;;;;;;;27.55;14.83;98366.81;4822469;29;20054;-90
2022/05/11 12:37:33;;;;;;;0.60;0.60;;;;;;;27.72;14.27;98375.75;4807322;29;20054;-92
2022/05/11 12:40:14;;;;;;;0.60;0.60;;;;;;;28.06;14.53;98374.66;4822166;29;20066;-91
2022/05/11 12:42:44;;;;;;;0.60;0.60;;;;;;;28.72;14.26;98377.84;4807730;29;20165;-91
2022/05/11 12:45:15;;;;;;;0.50;0.50;;;;;;;28.45;14.03;98373.56;4863328;29;20139;-91